sensor_id;sensor_type;location;lat;lon;timestamp;pressure;altitude;pressure_sealevel;temperature;humidity
52957;BME280;38819;42.692;23.342;2023-12-04T00:00:20;95801.94;;;2.06;58.74
52957;BME280;38819;42.692;23.342;2023-12-04T00:02:45;95798.06;;;2.01;58.58
52957;BME280;38819;42.692;23.342;2023-12-04T00:05:11;95802.94;;;2.04;57.84
52957;BME280;38819;42.692;23.342;2023-12-04T00:07:36;95806.50;;;1.98;57.67
52957;BME280;38819;42.692;23.342;2023-12-04T00:10:01;95819.16;;;2.03;57.99
52957;BME280;38819;42.692;23.342;2023-12-04T00:12:26;95813.75;;;1.91;58.29
52957;BME280;38819;42.692;23.342;2023-12-04T00:14:52;95813.84;;;1.84;58.13
52957;BME280;38819;42.692;23.342;2023-12-04T00:17:17;95820.03;;;1.97;57.77
52957;BME280;38819;42.692;23.342;2023-12-04T00:19:42;95824.44;;;1.91;58.37
52957;BME280;38819;42.692;23.342;2023-12-04T00:22:07;95824.72;;;2.01;58.10
52957;BME280;38819;42.692;23.342;2023-12-04T00:24:32;95838.53;;;1.92;58.56
52957;BME280;38819;42.692;23.342;2023-12-04T00:26:58;95836.78;;;2.04;58.26
52957;BME280;38819;42.692;23.342;2023-12-04T00:29:23;95842.34;;;2.02;58.20
52957;BME280;38819;42.692;23.342;2023-12-04T00:31:48;95840.03;;;2.06;57.82
52957;BME280;38819;42.692;23.342;2023-12-04T00:34:13;95838.97;;;2.07;57.63
52957;BME280;38819;42.692;23.342;2023-12-04T00:36:39;95858.97;;;1.98;57.48
52957;BME280;38819;42.692;23.342;2023-12-04T00:39:04;95860.91;;;1.91;57.63
52957;BME280;38819;42.692;23.342;2023-12-04T00:41:30;95854.69;;;1.78;57.26
52957;BME280;38819;42.692;23.342;2023-12-04T00:43:55;95861.34;;;1.69;58.26
52957;BME280;38819;42.692;23.342;2023-12-04T00:46:20;95863.22;;;1.62;58.67
52957;BME280;38819;42.692;23.342;2023-12-04T00:48:46;95873.03;;;1.68;58.34
52957;BME280;38819;42.692;23.342;2023-12-04T00:51:11;95858.16;;;1.79;58.58
52957;BME280;38819;42.692;23.342;2023-12-04T00:53:37;95862.66;;;1.78;58.46
52957;BME280;38819;42.692;23.342;2023-12-04T00:56:02;95875.19;;;1.96;58.26
52957;BME280;38819;42.692;23.342;2023-12-04T00:58:27;95871.03;;;1.82;58.15
52957;BME280;38819;42.692;23.342;2023-12-04T01:00:52;95872.38;;;1.91;58.02
52957;BME280;38819;42.692;23.342;2023-12-04T01:03:18;95874.22;;;1.91;58.14
52957;BME280;38819;42.692;23.342;2023-12-04T01:05:43;95867.56;;;1.81;58.48
52957;BME280;38819;42.692;23.342;2023-12-04T01:08:08;95873.25;;;1.85;58.53
52957;BME280;38819;42.692;23.342;2023-12-04T01:10:33;95879.78;;;1.89;58.52
52957;BME280;38819;42.692;23.342;2023-12-04T01:12:59;95875.09;;;1.84;57.80
52957;BME280;38819;42.692;23.342;2023-12-04T01:15:24;95873.84;;;1.87;58.13
52957;BME280;38819;42.692;23.342;2023-12-04T01:17:49;95875.25;;;1.90;58.29
52957;BME280;38819;42.692;23.342;2023-12-04T01:20:15;95878.34;;;1.87;58.65
52957;BME280;38819;42.692;23.342;2023-12-04T01:22:40;95898.13;;;1.79;58.21
52957;BME280;38819;42.692;23.342;2023-12-04T01:25:05;95881.69;;;1.82;58.32
52957;BME280;38819;42.692;23.342;2023-12-04T01:27:31;95887.81;;;1.64;58.70
52957;BME280;38819;42.692;23.342;2023-12-04T01:29:56;95890.69;;;1.62;59.22
52957;BME280;38819;42.692;23.342;2023-12-04T01:32:21;95876.34;;;1.63;59.15
52957;BME280;38819;42.692;23.342;2023-12-04T01:34:47;95879.38;;;1.67;59.20
52957;BME280;38819;42.692;23.342;2023-12-04T01:37:12;95874.91;;;1.86;58.67
52957;BME280;38819;42.692;23.342;2023-12-04T01:39:37;95873.53;;;1.95;58.25
52957;BME280;38819;42.692;23.342;2023-12-04T01:42:02;95872.81;;;1.88;57.85
52957;BME280;38819;42.692;23.342;2023-12-04T01:44:27;95878.00;;;2.01;57.43
52957;BME280;38819;42.692;23.342;2023-12-04T01:46:53;95885.25;;;1.94;57.79
52957;BME280;38819;42.692;23.342;2023-12-04T01:49:18;95885.78;;;2.03;57.95
52957;BME280;38819;42.692;23.342;2023-12-04T01:51:44;95886.19;;;1.81;57.80
52957;BME280;38819;42.692;23.342;2023-12-04T01:54:09;95884.66;;;1.92;57.95
52957;BME280;38819;42.692;23.342;2023-12-04T01:56:34;95895.97;;;1.88;57.65
52957;BME280;38819;42.692;23.342;2023-12-04T01:59:01;95883.25;;;1.90;58.06
52957;BME280;38819;42.692;23.342;2023-12-04T02:01:26;95905.22;;;2.03;57.30
52957;BME280;38819;42.692;23.342;2023-12-04T02:03:52;95880.94;;;1.93;57.65
52957;BME280;38819;42.692;23.342;2023-12-04T02:06:18;95904.78;;;1.88;57.97
52957;BME280;38819;42.692;23.342;2023-12-04T02:08:46;95886.94;;;1.89;57.76
52957;BME280;38819;42.692;23.342;2023-12-04T02:11:11;95889.31;;;1.97;57.81
52957;BME280;38819;42.692;23.342;2023-12-04T02:13:37;95895.16;;;1.87;58.28
52957;BME280;38819;42.692;23.342;2023-12-04T02:16:03;95902.03;;;1.76;57.86
52957;BME280;38819;42.692;23.342;2023-12-04T02:18:31;95906.84;;;1.86;57.55
52957;BME280;38819;42.692;23.342;2023-12-04T02:20:56;95907.06;;;1.66;58.06
52957;BME280;38819;42.692;23.342;2023-12-04T02:23:21;95917.41;;;1.74;58.21
52957;BME280;38819;42.692;23.342;2023-12-04T02:25:47;95915.66;;;1.87;57.83
52957;BME280;38819;42.692;23.342;2023-12-04T02:28:13;95918.75;;;1.83;57.82
52957;BME280;38819;42.692;23.342;2023-12-04T02:30:40;95931.47;;;1.81;57.88
52957;BME280;38819;42.692;23.342;2023-12-04T02:33:06;95916.03;;;1.90;57.34
52957;BME280;38819;42.692;23.342;2023-12-04T02:35:33;95923.94;;;1.78;57.27
52957;BME280;38819;42.692;23.342;2023-12-04T02:38:00;95921.75;;;1.69;57.20
52957;BME280;38819;42.692;23.342;2023-12-04T02:40:25;95917.66;;;1.47;57.26
52957;BME280;38819;42.692;23.342;2023-12-04T02:42:51;95927.34;;;1.60;57.62
52957;BME280;38819;42.692;23.342;2023-12-04T02:45:16;95937.00;;;1.61;57.59
52957;BME280;38819;42.692;23.342;2023-12-04T02:47:41;95918.72;;;1.65;57.29
52957;BME280;38819;42.692;23.342;2023-12-04T02:50:07;95923.41;;;1.70;57.26
52957;BME280;38819;42.692;23.342;2023-12-04T02:52:32;95924.16;;;1.52;57.44
52957;BME280;38819;42.692;23.342;2023-12-04T02:54:57;95921.44;;;1.58;57.45
52957;BME280;38819;42.692;23.342;2023-12-04T02:57:23;95927.81;;;1.32;58.03
52957;BME280;38819;42.692;23.342;2023-12-04T02:59:48;95950.56;;;1.28;57.44
52957;BME280;38819;42.692;23.342;2023-12-04T03:02:13;95916.75;;;1.28;57.94
52957;BME280;38819;42.692;23.342;2023-12-04T03:04:39;95941.50;;;1.36;57.67
52957;BME280;38819;42.692;23.342;2023-12-04T03:07:04;95930.22;;;1.34;58.05
52957;BME280;38819;42.692;23.342;2023-12-04T03:09:29;95920.34;;;1.16;58.36
52957;BME280;38819;42.692;23.342;2023-12-04T03:11:54;95917.38;;;1.05;58.74
52957;BME280;38819;42.692;23.342;2023-12-04T03:14:20;95918.22;;;0.99;58.80
52957;BME280;38819;42.692;23.342;2023-12-04T03:16:45;95925.34;;;1.05;58.62
52957;BME280;38819;42.692;23.342;2023-12-04T03:19:10;95941.56;;;0.97;58.97
52957;BME280;38819;42.692;23.342;2023-12-04T03:21:35;95920.75;;;0.87;59.31
52957;BME280;38819;42.692;23.342;2023-12-04T03:24:01;95933.75;;;1.02;59.13
52957;BME280;38819;42.692;23.342;2023-12-04T03:26:26;95940.44;;;1.11;58.46
52957;BME280;38819;42.692;23.342;2023-12-04T03:28:51;95945.94;;;0.78;59.35
52957;BME280;38819;42.692;23.342;2023-12-04T03:31:16;95936.91;;;0.86;59.01
52957;BME280;38819;42.692;23.342;2023-12-04T03:33:42;95954.44;;;0.93;59.36
52957;BME280;38819;42.692;23.342;2023-12-04T03:36:07;95935.03;;;0.93;58.91
52957;BME280;38819;42.692;23.342;2023-12-04T03:38:32;95941.38;;;0.92;58.95
52957;BME280;38819;42.692;23.342;2023-12-04T03:40:58;95939.03;;;1.09;58.58
52957;BME280;38819;42.692;23.342;2023-12-04T03:43:23;95939.97;;;1.21;57.18
52957;BME280;38819;42.692;23.342;2023-12-04T03:45:48;95953.50;;;1.13;57.42
52957;BME280;38819;42.692;23.342;2023-12-04T03:48:13;95959.97;;;0.99;57.79
52957;BME280;38819;42.692;23.342;2023-12-04T03:50:39;95947.91;;;0.96;58.35
52957;BME280;38819;42.692;23.342;2023-12-04T03:53:04;95947.59;;;0.79;57.96
52957;BME280;38819;42.692;23.342;2023-12-04T03:55:29;95945.03;;;0.98;57.81
52957;BME280;38819;42.692;23.342;2023-12-04T03:57:54;95941.81;;;0.89;57.71
52957;BME280;38819;42.692;23.342;2023-12-04T04:00:21;95947.25;;;1.01;57.43
52957;BME280;38819;42.692;23.342;2023-12-04T04:02:47;95940.28;;;1.00;57.41
52957;BME280;38819;42.692;23.342;2023-12-04T04:05:13;95950.16;;;0.92;57.62
52957;BME280;38819;42.692;23.342;2023-12-04T04:07:39;95943.75;;;0.68;58.21
52957;BME280;38819;42.692;23.342;2023-12-04T04:10:04;95945.91;;;0.85;57.59
52957;BME280;38819;42.692;23.342;2023-12-04T04:12:30;95940.75;;;0.90;57.50
52957;BME280;38819;42.692;23.342;2023-12-04T04:14:55;95947.16;;;0.82;57.50
52957;BME280;38819;42.692;23.342;2023-12-04T04:17:21;95947.13;;;0.89;57.74
52957;BME280;38819;42.692;23.342;2023-12-04T04:19:48;95963.44;;;0.99;57.09
52957;BME280;38819;42.692;23.342;2023-12-04T04:22:13;95957.47;;;1.04;57.08
52957;BME280;38819;42.692;23.342;2023-12-04T04:24:38;95960.34;;;0.64;57.60
52957;BME280;38819;42.692;23.342;2023-12-04T04:27:03;95956.81;;;0.70;57.55
52957;BME280;38819;42.692;23.342;2023-12-04T04:29:30;95968.47;;;0.76;57.53
52957;BME280;38819;42.692;23.342;2023-12-04T04:31:55;95977.09;;;0.64;58.04
52957;BME280;38819;42.692;23.342;2023-12-04T04:34:21;95972.41;;;0.60;58.08
52957;BME280;38819;42.692;23.342;2023-12-04T04:36:47;95977.47;;;0.74;57.69
52957;BME280;38819;42.692;23.342;2023-12-04T04:39:13;95969.13;;;0.64;57.81
52957;BME280;38819;42.692;23.342;2023-12-04T04:41:38;95973.16;;;0.73;57.78
52957;BME280;38819;42.692;23.342;2023-12-04T04:44:04;95967.84;;;0.73;57.62
52957;BME280;38819;42.692;23.342;2023-12-04T04:46:29;95989.47;;;0.39;58.45
52957;BME280;38819;42.692;23.342;2023-12-04T04:48:55;95992.09;;;0.52;57.89
52957;BME280;38819;42.692;23.342;2023-12-04T04:51:20;95976.94;;;0.52;57.76
52957;BME280;38819;42.692;23.342;2023-12-04T04:53:45;95986.78;;;0.52;57.76
52957;BME280;38819;42.692;23.342;2023-12-04T04:56:11;95994.13;;;0.50;57.74
52957;BME280;38819;42.692;23.342;2023-12-04T04:58:36;96001.66;;;0.60;57.64
52957;BME280;38819;42.692;23.342;2023-12-04T05:01:01;95994.06;;;0.63;57.48
52957;BME280;38819;42.692;23.342;2023-12-04T05:03:27;95999.16;;;0.71;57.67
52957;BME280;38819;42.692;23.342;2023-12-04T05:05:52;95993.03;;;0.71;57.14
52957;BME280;38819;42.692;23.342;2023-12-04T05:08:17;95992.38;;;0.82;56.38
52957;BME280;38819;42.692;23.342;2023-12-04T05:10:42;95995.00;;;0.89;56.47
52957;BME280;38819;42.692;23.342;2023-12-04T05:13:08;95999.63;;;1.00;56.56
52957;BME280;38819;42.692;23.342;2023-12-04T05:15:33;96001.28;;;1.01;56.46
52957;BME280;38819;42.692;23.342;2023-12-04T05:17:58;96002.94;;;0.96;56.10
52957;BME280;38819;42.692;23.342;2023-12-04T05:20:23;96004.19;;;0.93;56.13
52957;BME280;38819;42.692;23.342;2023-12-04T05:22:49;96008.72;;;0.86;56.64
52957;BME280;38819;42.692;23.342;2023-12-04T05:25:14;96014.81;;;0.93;56.62
52957;BME280;38819;42.692;23.342;2023-12-04T05:27:39;96006.28;;;0.84;56.48
52957;BME280;38819;42.692;23.342;2023-12-04T05:30:05;96013.63;;;0.89;57.01
52957;BME280;38819;42.692;23.342;2023-12-04T05:32:30;96006.88;;;0.86;56.45
52957;BME280;38819;42.692;23.342;2023-12-04T05:34:55;96016.25;;;0.96;56.48
52957;BME280;38819;42.692;23.342;2023-12-04T05:37:21;96017.69;;;0.91;56.17
52957;BME280;38819;42.692;23.342;2023-12-04T05:39:46;96016.22;;;1.02;56.03
52957;BME280;38819;42.692;23.342;2023-12-04T05:42:12;96020.69;;;1.02;56.09
52957;BME280;38819;42.692;23.342;2023-12-04T05:44:37;96020.69;;;1.02;56.33
52957;BME280;38819;42.692;23.342;2023-12-04T05:47:02;96014.78;;;1.00;55.88
52957;BME280;38819;42.692;23.342;2023-12-04T05:49:27;96019.28;;;0.99;55.82
52957;BME280;38819;42.692;23.342;2023-12-04T05:51:54;96020.66;;;1.08;55.99
52957;BME280;38819;42.692;23.342;2023-12-04T05:54:19;96018.22;;;1.07;55.45
52957;BME280;38819;42.692;23.342;2023-12-04T05:56:44;96012.38;;;0.91;55.89
52957;BME280;38819;42.692;23.342;2023-12-04T05:59:10;96029.97;;;0.92;56.07
52957;BME280;38819;42.692;23.342;2023-12-04T06:01:35;96027.31;;;0.92;56.89
52957;BME280;38819;42.692;23.342;2023-12-04T06:04:00;96028.69;;;1.02;56.42
52957;BME280;38819;42.692;23.342;2023-12-04T06:06:26;96035.44;;;1.04;56.14
52957;BME280;38819;42.692;23.342;2023-12-04T06:08:52;96037.69;;;1.07;56.46
52957;BME280;38819;42.692;23.342;2023-12-04T06:11:17;96031.38;;;0.95;56.12
52957;BME280;38819;42.692;23.342;2023-12-04T06:13:42;96025.56;;;1.11;56.49
52957;BME280;38819;42.692;23.342;2023-12-04T06:16:07;96041.91;;;1.15;55.71
52957;BME280;38819;42.692;23.342;2023-12-04T06:18:33;96037.00;;;1.19;55.67
52957;BME280;38819;42.692;23.342;2023-12-04T06:20:58;96033.09;;;1.21;56.05
52957;BME280;38819;42.692;23.342;2023-12-04T06:23:23;96044.94;;;1.32;55.26
52957;BME280;38819;42.692;23.342;2023-12-04T06:25:49;96039.81;;;1.31;55.50
52957;BME280;38819;42.692;23.342;2023-12-04T06:28:14;96040.84;;;1.29;55.97
52957;BME280;38819;42.692;23.342;2023-12-04T06:30:40;96035.69;;;1.35;56.11
52957;BME280;38819;42.692;23.342;2023-12-04T06:33:06;96034.44;;;1.37;55.88
52957;BME280;38819;42.692;23.342;2023-12-04T06:35:32;96044.06;;;1.38;55.47
52957;BME280;38819;42.692;23.342;2023-12-04T06:37:58;96043.81;;;1.46;55.37
52957;BME280;38819;42.692;23.342;2023-12-04T06:40:26;96050.75;;;1.47;55.43
52957;BME280;38819;42.692;23.342;2023-12-04T06:42:51;96059.94;;;1.52;55.20
52957;BME280;38819;42.692;23.342;2023-12-04T06:45:17;96064.41;;;1.26;55.42
52957;BME280;38819;42.692;23.342;2023-12-04T06:47:43;96062.13;;;1.29;55.81
52957;BME280;38819;42.692;23.342;2023-12-04T06:50:08;96074.81;;;1.34;55.77
52957;BME280;38819;42.692;23.342;2023-12-04T06:52:34;96068.25;;;1.30;55.86
52957;BME280;38819;42.692;23.342;2023-12-04T06:54:59;96088.16;;;1.27;55.25
52957;BME280;38819;42.692;23.342;2023-12-04T06:57:24;96074.03;;;1.20;55.91
52957;BME280;38819;42.692;23.342;2023-12-04T06:59:50;96076.66;;;1.27;55.30
52957;BME280;38819;42.692;23.342;2023-12-04T07:02:15;96076.94;;;1.19;54.98
52957;BME280;38819;42.692;23.342;2023-12-04T07:04:40;96075.53;;;1.09;55.27
52957;BME280;38819;42.692;23.342;2023-12-04T07:07:06;96077.19;;;1.04;55.92
52957;BME280;38819;42.692;23.342;2023-12-04T07:09:31;96093.41;;;0.96;56.25
52957;BME280;38819;42.692;23.342;2023-12-04T07:11:57;96083.94;;;1.00;56.41
52957;BME280;38819;42.692;23.342;2023-12-04T07:14:22;96078.44;;;0.95;56.70
52957;BME280;38819;42.692;23.342;2023-12-04T07:16:48;96071.69;;;0.99;56.73
52957;BME280;38819;42.692;23.342;2023-12-04T07:19:13;96075.41;;;0.84;56.16
52957;BME280;38819;42.692;23.342;2023-12-04T07:21:39;96078.63;;;1.00;56.22
52957;BME280;38819;42.692;23.342;2023-12-04T07:24:06;96088.50;;;0.86;56.54
52957;BME280;38819;42.692;23.342;2023-12-04T07:26:33;96084.59;;;0.88;56.48
52957;BME280;38819;42.692;23.342;2023-12-04T07:28:59;96082.75;;;0.96;56.95
52957;BME280;38819;42.692;23.342;2023-12-04T07:31:24;96077.81;;;0.99;56.91
52957;BME280;38819;42.692;23.342;2023-12-04T07:33:52;96078.59;;;1.06;56.55
52957;BME280;38819;42.692;23.342;2023-12-04T07:36:17;96082.84;;;1.21;55.94
52957;BME280;38819;42.692;23.342;2023-12-04T07:38:42;96092.19;;;1.37;55.64
52957;BME280;38819;42.692;23.342;2023-12-04T07:41:07;96089.06;;;1.46;55.21
52957;BME280;38819;42.692;23.342;2023-12-04T07:43:33;96092.19;;;1.37;54.02
52957;BME280;38819;42.692;23.342;2023-12-04T07:45:58;96085.94;;;1.18;54.79
52957;BME280;38819;42.692;23.342;2023-12-04T07:48:23;96085.88;;;1.31;54.13
52957;BME280;38819;42.692;23.342;2023-12-04T07:50:48;96085.34;;;1.16;55.24
52957;BME280;38819;42.692;23.342;2023-12-04T07:53:14;96090.41;;;1.24;55.07
52957;BME280;38819;42.692;23.342;2023-12-04T07:55:39;96087.94;;;1.29;54.64
52957;BME280;38819;42.692;23.342;2023-12-04T07:58:04;96088.66;;;1.43;54.15
52957;BME280;38819;42.692;23.342;2023-12-04T08:00:30;96101.13;;;1.49;54.14
52957;BME280;38819;42.692;23.342;2023-12-04T08:02:55;96096.66;;;1.43;53.24
52957;BME280;38819;42.692;23.342;2023-12-04T08:05:21;96091.47;;;1.55;53.56
52957;BME280;38819;42.692;23.342;2023-12-04T08:07:46;96103.13;;;1.54;52.15
52957;BME280;38819;42.692;23.342;2023-12-04T08:10:12;96098.47;;;1.49;52.82
52957;BME280;38819;42.692;23.342;2023-12-04T08:12:37;96104.22;;;1.46;52.13
52957;BME280;38819;42.692;23.342;2023-12-04T08:15:03;96105.06;;;1.40;52.91
52957;BME280;38819;42.692;23.342;2023-12-04T08:17:28;96109.72;;;1.51;52.54
52957;BME280;38819;42.692;23.342;2023-12-04T08:19:54;96100.69;;;1.59;52.60
52957;BME280;38819;42.692;23.342;2023-12-04T08:22:19;96103.19;;;1.47;52.28
52957;BME280;38819;42.692;23.342;2023-12-04T08:24:44;96108.91;;;1.51;52.15
52957;BME280;38819;42.692;23.342;2023-12-04T08:27:10;96107.13;;;1.38;52.72
52957;BME280;38819;42.692;23.342;2023-12-04T08:29:35;96101.53;;;1.53;52.72
52957;BME280;38819;42.692;23.342;2023-12-04T08:32:01;96117.03;;;1.62;52.80
52957;BME280;38819;42.692;23.342;2023-12-04T08:34:26;96116.44;;;1.54;53.33
52957;BME280;38819;42.692;23.342;2023-12-04T08:36:51;96099.22;;;1.63;52.66
52957;BME280;38819;42.692;23.342;2023-12-04T08:39:16;96112.91;;;1.66;52.35
52957;BME280;38819;42.692;23.342;2023-12-04T08:41:44;96113.63;;;1.80;52.62
52957;BME280;38819;42.692;23.342;2023-12-04T08:44:10;96106.72;;;1.73;52.28
52957;BME280;38819;42.692;23.342;2023-12-04T08:46:36;96106.00;;;1.59;52.12
52957;BME280;38819;42.692;23.342;2023-12-04T08:49:01;96101.50;;;1.59;52.41
52957;BME280;38819;42.692;23.342;2023-12-04T08:51:27;96098.31;;;1.76;51.35
52957;BME280;38819;42.692;23.342;2023-12-04T08:53:52;96098.56;;;1.67;51.82
52957;BME280;38819;42.692;23.342;2023-12-04T08:56:17;96095.28;;;1.72;51.05
52957;BME280;38819;42.692;23.342;2023-12-04T08:58:43;96096.69;;;1.75;51.01
52957;BME280;38819;42.692;23.342;2023-12-04T09:01:08;96094.56;;;1.83;50.82
52957;BME280;38819;42.692;23.342;2023-12-04T09:03:33;96093.91;;;1.88;51.09
52957;BME280;38819;42.692;23.342;2023-12-04T09:05:58;96086.44;;;2.03;50.79
52957;BME280;38819;42.692;23.342;2023-12-04T09:08:24;96083.50;;;2.12;51.30
52957;BME280;38819;42.692;23.342;2023-12-04T09:10:52;96085.84;;;2.27;51.32
52957;BME280;38819;42.692;23.342;2023-12-04T09:13:17;96070.09;;;2.44;50.48
52957;BME280;38819;42.692;23.342;2023-12-04T09:15:42;96078.63;;;2.52;50.17
52957;BME280;38819;42.692;23.342;2023-12-04T09:18:07;96077.88;;;2.64;48.76
52957;BME280;38819;42.692;23.342;2023-12-04T09:20:33;96069.97;;;2.75;49.04
52957;BME280;38819;42.692;23.342;2023-12-04T09:22:58;96074.22;;;2.83;49.33
52957;BME280;38819;42.692;23.342;2023-12-04T09:25:23;96067.91;;;2.96;49.02
52957;BME280;38819;42.692;23.342;2023-12-04T09:27:49;96061.13;;;3.12;48.90
52957;BME280;38819;42.692;23.342;2023-12-04T09:30:14;96054.09;;;3.18;49.05
52957;BME280;38819;42.692;23.342;2023-12-04T09:32:39;96057.72;;;3.23;49.33
52957;BME280;38819;42.692;23.342;2023-12-04T09:35:05;96061.94;;;3.31;48.56
52957;BME280;38819;42.692;23.342;2023-12-04T09:37:31;96064.25;;;2.90;48.71
52957;BME280;38819;42.692;23.342;2023-12-04T09:39:56;96069.59;;;2.72;49.43
52957;BME280;38819;42.692;23.342;2023-12-04T09:42:21;96064.69;;;2.69;50.05
52957;BME280;38819;42.692;23.342;2023-12-04T09:44:47;96073.47;;;2.76;49.94
52957;BME280;38819;42.692;23.342;2023-12-04T09:47:13;96071.53;;;2.83;50.17
52957;BME280;38819;42.692;23.342;2023-12-04T09:49:39;96057.09;;;2.72;50.43
52957;BME280;38819;42.692;23.342;2023-12-04T09:52:05;96051.00;;;2.84;50.16
52957;BME280;38819;42.692;23.342;2023-12-04T09:54:31;96052.06;;;2.83;50.08
52957;BME280;38819;42.692;23.342;2023-12-04T09:56:57;96052.63;;;2.85;50.28
52957;BME280;38819;42.692;23.342;2023-12-04T09:59:23;96051.53;;;2.92;50.11
52957;BME280;38819;42.692;23.342;2023-12-04T10:01:49;96047.00;;;2.93;49.81
52957;BME280;38819;42.692;23.342;2023-12-04T10:04:15;96050.25;;;2.95;50.07
52957;BME280;38819;42.692;23.342;2023-12-04T10:06:40;96039.50;;;3.02;50.33
52957;BME280;38819;42.692;23.342;2023-12-04T10:09:05;96027.19;;;3.01;49.50
52957;BME280;38819;42.692;23.342;2023-12-04T10:11:39;96033.13;;;3.03;49.64
52957;BME280;38819;42.692;23.342;2023-12-04T10:14:04;96029.94;;;3.12;49.98
52957;BME280;38819;42.692;23.342;2023-12-04T10:16:37;96038.84;;;3.06;50.31
52957;BME280;38819;42.692;23.342;2023-12-04T10:21:41;96035.59;;;3.04;50.25
52957;BME280;38819;42.692;23.342;2023-12-04T10:24:07;96025.75;;;2.86;51.07
52957;BME280;38819;42.692;23.342;2023-12-04T10:26:32;96036.56;;;2.73;51.43
52957;BME280;38819;42.692;23.342;2023-12-04T10:29:01;96034.25;;;2.76;51.80
52957;BME280;38819;42.692;23.342;2023-12-04T10:31:26;96027.06;;;2.77;52.17
52957;BME280;38819;42.692;23.342;2023-12-04T10:33:52;96016.59;;;2.94;51.86
52957;BME280;38819;42.692;23.342;2023-12-04T10:36:17;96006.81;;;3.06;51.66
52957;BME280;38819;42.692;23.342;2023-12-04T10:38:44;96002.91;;;3.21;51.61
52957;BME280;38819;42.692;23.342;2023-12-04T10:41:12;96007.09;;;3.17;51.75
52957;BME280;38819;42.692;23.342;2023-12-04T10:43:45;96007.00;;;3.23;51.61
52957;BME280;38819;42.692;23.342;2023-12-04T10:46:11;96001.56;;;3.30;51.28
52957;BME280;38819;42.692;23.342;2023-12-04T10:48:37;96005.56;;;3.39;51.45
52957;BME280;38819;42.692;23.342;2023-12-04T10:51:03;95999.69;;;3.30;51.48
52957;BME280;38819;42.692;23.342;2023-12-04T10:53:30;96000.16;;;3.27;51.71
52957;BME280;38819;42.692;23.342;2023-12-04T10:55:55;96001.34;;;3.31;52.06
52957;BME280;38819;42.692;23.342;2023-12-04T10:58:21;96005.56;;;3.39;51.57
52957;BME280;38819;42.692;23.342;2023-12-04T11:00:51;96005.91;;;3.43;51.47
52957;BME280;38819;42.692;23.342;2023-12-04T11:03:30;96005.19;;;3.47;51.62
52957;BME280;38819;42.692;23.342;2023-12-04T11:06:01;95998.28;;;3.58;51.54
52957;BME280;38819;42.692;23.342;2023-12-04T11:08:28;95991.28;;;3.57;51.53
52957;BME280;38819;42.692;23.342;2023-12-04T11:13:23;95984.44;;;3.49;52.42
52957;BME280;38819;42.692;23.342;2023-12-04T11:15:52;95980.72;;;3.50;52.16
52957;BME280;38819;42.692;23.342;2023-12-04T11:18:19;95989.44;;;3.46;52.71
52957;BME280;38819;42.692;23.342;2023-12-04T11:20:56;95980.28;;;3.65;52.92
52957;BME280;38819;42.692;23.342;2023-12-04T11:23:23;95983.56;;;3.79;53.05
52957;BME280;38819;42.692;23.342;2023-12-04T11:25:49;95973.13;;;3.89;52.51
52957;BME280;38819;42.692;23.342;2023-12-04T11:28:14;95969.16;;;4.04;52.96
52957;BME280;38819;42.692;23.342;2023-12-04T11:30:41;95970.69;;;4.23;52.59
52957;BME280;38819;42.692;23.342;2023-12-04T11:33:06;95974.75;;;4.38;52.22
52957;BME280;38819;42.692;23.342;2023-12-04T11:35:33;95961.47;;;4.43;51.77
52957;BME280;38819;42.692;23.342;2023-12-04T11:37:58;95954.03;;;4.45;52.19
52957;BME280;38819;42.692;23.342;2023-12-04T11:40:23;95963.94;;;4.44;51.18
52957;BME280;38819;42.692;23.342;2023-12-04T11:42:49;95959.75;;;4.25;51.14
52957;BME280;38819;42.692;23.342;2023-12-04T11:45:18;95951.03;;;4.30;51.49
52957;BME280;38819;42.692;23.342;2023-12-04T11:47:48;95944.25;;;4.39;51.40
52957;BME280;38819;42.692;23.342;2023-12-04T11:50:13;95939.00;;;4.44;51.13
52957;BME280;38819;42.692;23.342;2023-12-04T11:52:39;95936.31;;;4.56;50.98
52957;BME280;38819;42.692;23.342;2023-12-04T11:55:04;95933.16;;;4.59;51.98
52957;BME280;38819;42.692;23.342;2023-12-04T11:57:34;95942.50;;;4.56;51.58
52957;BME280;38819;42.692;23.342;2023-12-04T12:02:35;95924.38;;;4.47;51.92
52957;BME280;38819;42.692;23.342;2023-12-04T12:05:00;95933.06;;;4.54;52.22
52957;BME280;38819;42.692;23.342;2023-12-04T12:07:25;95928.16;;;4.62;52.06
52957;BME280;38819;42.692;23.342;2023-12-04T12:09:51;95921.28;;;4.67;51.43
52957;BME280;38819;42.692;23.342;2023-12-04T12:12:16;95920.81;;;4.70;50.87
52957;BME280;38819;42.692;23.342;2023-12-04T12:14:42;95919.88;;;4.64;50.45
52957;BME280;38819;42.692;23.342;2023-12-04T12:17:07;95908.91;;;4.77;50.51
52957;BME280;38819;42.692;23.342;2023-12-04T12:19:33;95910.06;;;4.81;50.50
52957;BME280;38819;42.692;23.342;2023-12-04T12:21:59;95901.75;;;4.95;50.71
52957;BME280;38819;42.692;23.342;2023-12-04T12:24:24;95905.75;;;5.09;50.29
52957;BME280;38819;42.692;23.342;2023-12-04T12:26:50;95913.16;;;5.19;49.12
52957;BME280;38819;42.692;23.342;2023-12-04T12:29:15;95905.22;;;5.24;49.00
52957;BME280;38819;42.692;23.342;2023-12-04T12:31:40;95911.72;;;5.28;49.25
52957;BME280;38819;42.692;23.342;2023-12-04T12:34:06;95901.66;;;5.35;49.19
52957;BME280;38819;42.692;23.342;2023-12-04T12:36:31;95894.50;;;5.41;49.38
52957;BME280;38819;42.692;23.342;2023-12-04T12:38:59;95886.22;;;5.43;49.47
52957;BME280;38819;42.692;23.342;2023-12-04T12:41:25;95899.53;;;5.37;50.29
52957;BME280;38819;42.692;23.342;2023-12-04T12:43:51;95896.22;;;5.30;50.59
52957;BME280;38819;42.692;23.342;2023-12-04T12:46:17;95892.13;;;5.11;51.87
52957;BME280;38819;42.692;23.342;2023-12-04T12:48:42;95890.50;;;4.81;52.52
52957;BME280;38819;42.692;23.342;2023-12-04T12:51:08;95884.03;;;4.77;53.09
52957;BME280;38819;42.692;23.342;2023-12-04T12:53:36;95881.44;;;4.82;53.24
52957;BME280;38819;42.692;23.342;2023-12-04T12:56:01;95883.97;;;4.89;53.22
52957;BME280;38819;42.692;23.342;2023-12-04T12:58:27;95883.16;;;4.88;52.88